Winslow Lindbergh Regional Airport Winslow US
ICAO: KINW
IATA: INW
Category: Medium
Scheduled Services: No

Elevation: 4941 ft
TransAlt. 18000 ft.

Airport Communications:
ASOS:118.875
ALBUQUERQUE CNTR:124.5
PRESCOTT RDO:122.6
CTAF/UNICOM:122.8

KINW Zoom In..

Runways:

(A) RW 04 length 6236 ft width 75 ft
---- / hdg 45

(B) RW 11 length 7100 ft width 150 ft
---- / hdg 106

(C) RW 22 length 6236 ft width 75 ft
---- / hdg 225

(D) RW 29 length 7100 ft width 150 ft
---- / hdg 286

Location; KINW
Day. 16 / Time. 00.56 Zulu
* Altimeter: 30.05
* Temperature: 29° c. 84.2°f.
* Wind from: 090° Speed 12 kn.
Dewpoint: 12° c.
Visibility: 10 Statute Miles.
Clouds: Clear (automated report).
Conditions: Light Rain.

KINW 160056Z AUTO 09012KT 10SM -RA CLR 29/12 A3005 RMK AO2 PK WND 10026/0034 LTG DSNT S RAB25 SLP095 P0000 T02890117

Going to: --> -->


Wind From 090°
Speed 12 kn.

 
 
jpsmedia worldairports.se 2020   terms of use